Time;durP1;ratioP1;P1;durP2;ratioP2;P2;SDS_P1;SDS_P2;PMS_P1;PMS_P2;Temp;Humidity;BMP_temperature;BMP_pressure;BME280_temperature;BME280_humidity;BME280_pressure;Samples;Min_cycle;Max_cycle;Signal;HPM_P1;HPM_P2
2021/10/13 00:04:37;;;;;;;;;;;6.90;99.90;;;5.85;100.00;95735.53;10564743;27;1979;-77
2021/10/13 00:09:40;;;;;;;;;;;6.90;99.90;;;5.75;100.00;95751.38;10588774;27;1957;-77
2021/10/13 00:14:43;;;;;;;;;;;6.90;99.90;;;5.82;100.00;95749.34;10578566;27;1937;-76
2021/10/13 00:19:46;;;;;;;;;;;6.90;99.90;;;5.81;100.00;95761.06;10577602;28;1913;-78
2021/10/13 00:24:50;;;;;;;;;;;6.90;99.90;;;5.73;100.00;95764.16;10582791;28;1914;-76
2021/10/13 00:29:53;;;;;;;;;;;6.80;99.90;;;5.70;100.00;95753.97;10584837;27;2191;-77
2021/10/13 00:34:56;;;;;;;;;;;6.80;99.90;;;5.72;100.00;95767.84;10575892;28;1886;-76
2021/10/13 00:39:59;;;;;;;;;;;6.80;99.90;;;5.70;100.00;95780.63;10549934;28;1906;-77
2021/10/13 00:45:02;;;;;;;;;;;6.80;99.90;;;5.66;100.00;95780.31;10579361;27;2005;-78
2021/10/13 00:50:05;;;;;;;;;;;6.80;99.90;;;5.71;100.00;95787.56;10583666;28;1944;-78
2021/10/13 00:55:08;;;;;;;;;;;6.80;99.90;;;5.55;100.00;95791.06;10568719;27;2166;-77
2021/10/13 01:00:10;;;;;;;;;;;6.70;99.90;;;5.60;100.00;95799.94;10587969;28;2211;-78
2021/10/13 01:05:13;;;;;;;;;;;6.70;99.90;;;5.62;100.00;95807.69;10579287;27;1838;-77
2021/10/13 01:10:36;;;;;;;;;;;6.70;99.90;;;5.73;100.00;95814.84;10594979;28;1890;-78
2021/10/13 01:15:43;;;;;;;;;;;6.70;99.90;;;5.67;100.00;95823.78;10564377;27;2130;-76
2021/10/13 01:20:46;;;;;;;;;;;6.80;99.90;;;5.58;100.00;95836.69;10588333;28;2482;-78
2021/10/13 01:26:09;;;;;;;;;;;6.70;99.90;;;5.46;100.00;95837.81;10591240;28;1901;-78
2021/10/13 01:31:32;;;;;;;;;;;6.60;99.90;;;5.57;100.00;95835.09;10577670;28;1973;-78
2021/10/13 01:36:35;;;;;;;;;;;6.60;99.90;;;5.60;100.00;95839.16;10575893;28;2008;-77
2021/10/13 01:41:38;;;;;;;;;;;6.60;99.90;;;5.60;100.00;95849.81;10572430;28;2232;-77
2021/10/13 01:46:41;;;;;;;;;;;6.70;99.90;;;5.54;100.00;95856.09;10574245;28;2023;-77
2021/10/13 01:51:44;;;;;;;;;;;6.60;99.90;;;5.50;100.00;95865.63;10568313;28;2000;-77
2021/10/13 01:56:47;;;;;;;;;;;6.60;99.90;;;5.49;100.00;95869.34;10576865;28;1954;-77
2021/10/13 02:01:49;;;;;;;;;;;6.60;99.90;;;5.49;100.00;95880.81;10576701;28;1983;-76
2021/10/13 02:06:53;;;;;;;;;;;6.50;99.90;;;5.47;100.00;95882.06;10579804;27;1882;-77
2021/10/13 02:11:55;;;;;;;;;;;6.50;99.90;;;5.59;100.00;95890.84;10557023;28;1861;-77
2021/10/13 02:16:58;;;;;;;;;;;6.60;99.90;;;5.65;100.00;95881.88;10583242;28;1918;-77
2021/10/13 02:22:01;;;;;;;;;;;6.60;99.90;;;5.63;100.00;95886.66;10575528;28;1981;-77
2021/10/13 02:27:04;;;;;;;;;;;6.70;99.90;;;5.51;100.00;95901.88;10576274;28;1974;-77
2021/10/13 02:32:07;;;;;;;;;;;6.60;99.90;;;5.55;100.00;95905.72;10583732;28;1832;-78
2021/10/13 02:37:10;;;;;;;;;;;6.60;99.90;;;5.50;100.00;95913.59;10580034;28;1881;-77
2021/10/13 02:42:13;;;;;;;;;;;6.50;99.90;;;5.56;100.00;95912.66;10552971;28;1914;-77
2021/10/13 02:47:16;;;;;;;;;;;6.60;99.90;;;5.56;100.00;95928.66;10577459;28;1859;-78
2021/10/13 02:52:19;;;;;;;;;;;6.60;99.90;;;5.55;100.00;95929.72;10571449;28;1836;-78
2021/10/13 02:57:22;;;;;;;;;;;6.70;99.90;;;5.51;100.00;95941.88;10554665;28;1916;-78
2021/10/13 03:02:25;;;;;;;;;;;6.60;99.90;;;5.40;100.00;95940.88;10556793;28;2042;-77
2021/10/13 03:07:28;;;;;;;;;;;6.50;99.90;;;5.30;100.00;95946.00;10559548;27;1953;-76
2021/10/13 03:12:31;;;;;;;;;;;6.40;99.90;;;5.26;100.00;95947.53;10566837;27;1951;-77
2021/10/13 03:17:34;;;;;;;;;;;6.30;99.90;;;5.29;100.00;95950.53;10587783;27;1761;-78
2021/10/13 03:22:37;;;;;;;;;;;6.30;99.90;;;5.36;100.00;95951.22;10593832;28;1886;-77
2021/10/13 03:27:40;;;;;;;;;;;6.40;99.90;;;5.42;100.00;95960.94;10583889;28;1990;-77
2021/10/13 03:32:43;;;;;;;;;;;6.40;99.90;;;5.36;100.00;95961.06;10589834;28;1931;-78
2021/10/13 03:37:45;;;;;;;;;;;6.40;99.90;;;5.41;100.00;95969.16;10610433;27;1956;-78
2021/10/13 03:42:48;;;;;;;;;;;6.40;99.90;;;5.33;100.00;95977.50;10583907;28;1965;-77
2021/10/13 03:47:51;;;;;;;;;;;6.40;99.90;;;5.42;100.00;95982.25;10575189;28;1811;-78
2021/10/13 03:52:54;;;;;;;;;;;6.40;99.90;;;5.41;100.00;95985.97;10594182;27;1839;-77
2021/10/13 03:57:57;;;;;;;;;;;6.40;99.90;;;5.33;100.00;95991.66;10576654;28;1815;-77
2021/10/13 04:03:00;;;;;;;;;;;6.50;99.90;;;5.21;100.00;95996.19;10592922;27;1910;-78
2021/10/13 04:08:03;;;;;;;;;;;6.30;99.90;;;5.26;100.00;96006.16;10597213;28;1926;-78
2021/10/13 04:13:06;;;;;;;;;;;6.40;99.90;;;5.29;100.00;96006.50;10593895;27;2005;-77
2021/10/13 04:18:09;;;;;;;;;;;6.30;99.90;;;5.35;100.00;96012.75;10599068;27;1958;-78
2021/10/13 04:23:13;;;;;;;;;;;6.40;99.90;;;5.33;100.00;96023.63;10596667;28;1949;-78
2021/10/13 04:28:16;;;;;;;;;;;6.40;99.90;;;5.20;100.00;96020.41;10590794;28;1913;-77
2021/10/13 04:33:23;;;;;;;;;;;6.30;99.90;;;5.23;100.00;96028.78;10591710;28;1834;-78
2021/10/13 04:38:26;;;;;;;;;;;6.30;99.90;;;5.12;100.00;96034.91;10592436;28;1914;-78
2021/10/13 04:43:29;;;;;;;;;;;6.30;99.90;;;5.11;100.00;96039.44;10585228;28;1859;-77
2021/10/13 04:48:32;;;;;;;;;;;6.20;99.90;;;5.21;100.00;96048.69;10592325;28;1850;-77
2021/10/13 04:53:35;;;;;;;;;;;6.30;99.90;;;5.28;100.00;96046.72;10584707;27;1919;-77
2021/10/13 04:58:38;;;;;;;;;;;6.30;99.90;;;5.09;100.00;96043.34;10592020;27;1964;-79
2021/10/13 05:03:41;;;;;;;;;;;6.20;99.90;;;4.88;100.00;96053.53;10579959;27;1792;-77
2021/10/13 05:08:44;;;;;;;;;;;6.10;99.90;;;4.73;100.00;96042.53;10580824;27;1878;-77
2021/10/13 05:13:47;;;;;;;;;;;6.00;99.90;;;4.50;100.00;96047.81;10591955;28;1894;-77
2021/10/13 05:18:50;;;;;;;;;;;5.80;99.90;;;4.38;100.00;96050.44;10590785;28;1985;-78
2021/10/13 05:23:53;;;;;;;;;;;5.70;99.90;;;4.31;100.00;96063.03;10591639;28;1625;-78
2021/10/13 05:28:56;;;;;;;;;;;5.60;99.90;;;4.30;100.00;96064.91;10590384;28;1911;-79
2021/10/13 05:33:59;;;;;;;;;;;5.50;99.90;;;4.36;100.00;96068.50;10589616;28;1890;-78
2021/10/13 05:39:02;;;;;;;;;;;5.60;99.90;;;4.39;100.00;96077.88;10589472;28;1972;-78
2021/10/13 05:44:04;;;;;;;;;;;5.60;99.90;;;4.44;100.00;96088.66;10582077;27;1858;-78
2021/10/13 05:49:07;;;;;;;;;;;5.60;99.90;;;4.53;100.00;96085.47;10590131;27;1888;-79
2021/10/13 05:54:10;;;;;;;;;;;5.60;99.90;;;4.61;100.00;96093.13;10616547;27;1873;-78
2021/10/13 05:59:13;;;;;;;;;;;5.70;99.90;;;4.73;100.00;96105.66;10591858;27;1909;-78
2021/10/13 06:04:16;;;;;;;;;;;5.80;99.90;;;4.87;100.00;96118.53;10591153;28;1989;-78
2021/10/13 06:09:19;;;;;;;;;;;5.90;99.90;;;4.95;100.00;96127.22;10567110;28;1849;-78
2021/10/13 06:14:22;;;;;;;;;;;6.00;99.90;;;5.21;100.00;96129.44;10586904;28;1993;-79
2021/10/13 06:19:25;;;;;;;;;;;6.10;99.90;;;5.32;100.00;96136.66;10576681;28;1918;-79
2021/10/13 06:24:28;;;;;;;;;;;6.30;99.90;;;5.52;100.00;96146.16;10577697;28;1902;-78
2021/10/13 06:29:32;;;;;;;;;;;6.40;99.90;;;5.72;100.00;96141.25;10596786;28;1858;-78
2021/10/13 06:34:35;;;;;;;;;;;6.70;99.90;;;5.70;100.00;96146.03;10583410;28;2027;-78
2021/10/13 06:39:38;;;;;;;;;;;6.70;99.90;;;5.71;100.00;96150.31;10570923;28;1917;-78
2021/10/13 06:44:41;;;;;;;;;;;6.80;99.90;;;5.63;100.00;96158.69;10582560;27;1361;-77
2021/10/13 06:49:49;;;;;;;;;;;6.70;99.90;;;5.91;100.00;96156.13;10556213;27;2182;-78
2021/10/13 06:54:51;;;;;;;;;;;6.80;99.90;;;6.34;100.00;96165.53;10582143;27;1953;-80
2021/10/13 06:59:54;;;;;;;;;;;7.00;99.90;;;6.87;100.00;96169.75;10577739;27;1980;-77
2021/10/13 07:04:57;;;;;;;;;;;7.40;99.90;;;6.72;100.00;96177.47;10579826;28;1850;-76
2021/10/13 07:10:00;;;;;;;;;;;7.60;99.90;;;6.74;100.00;96180.72;10574093;27;1857;-75
2021/10/13 07:15:03;;;;;;;;;;;7.60;99.90;;;6.77;100.00;96191.75;10575853;28;1835;-75
2021/10/13 07:20:06;;;;;;;;;;;7.60;99.90;;;6.65;100.00;96211.53;10548522;27;2484;-75
2021/10/13 07:25:09;;;;;;;;;;;7.60;99.90;;;6.57;100.00;96214.59;10574855;27;2247;-76
2021/10/13 07:30:16;;;;;;;;;;;7.50;99.90;;;6.28;100.00;96209.19;10578814;27;2009;-76
2021/10/13 07:35:19;;;;;;;;;;;7.40;99.90;;;6.50;100.00;96212.06;10576003;27;1920;-76
2021/10/13 07:40:22;;;;;;;;;;;7.40;99.90;;;6.71;100.00;96218.59;10554645;27;2029;-75
2021/10/13 07:45:25;;;;;;;;;;;7.50;99.90;;;6.87;100.00;96219.69;10572784;28;2337;-75
2021/10/13 07:50:28;;;;;;;;;;;7.60;99.90;;;7.20;100.00;96221.66;10575015;28;1984;-75
2021/10/13 07:55:31;;;;;;;;;;;7.90;99.90;;;6.58;100.00;96225.03;10566682;28;1978;-75
2021/10/13 08:00:35;;;;;;;;;;;7.80;99.90;;;6.85;100.00;96238.63;10567884;28;3218;-77
2021/10/13 08:05:38;;;;;;;;;;;7.70;99.90;;;7.49;100.00;96235.75;10569541;27;2294;-75
2021/10/13 08:10:41;;;;;;;;;;;8.00;99.90;;;7.86;97.45;96244.13;10574288;27;1858;-77
2021/10/13 08:15:45;;;;;;;;;;;8.40;99.90;;;7.17;97.68;96243.50;10571342;28;2147;-76
2021/10/13 08:20:48;;;;;;;;;;;8.40;99.90;;;7.10;97.97;96248.19;10568746;28;1988;-78
2021/10/13 08:25:54;;;;;;;;;;;8.20;99.90;;;7.15;98.64;96251.78;10552809;28;1888;-77
2021/10/13 08:30:57;;;;;;;;;;;8.10;99.90;;;7.57;100.00;96254.91;10572350;27;2318;-75
2021/10/13 08:36:00;;;;;;;;;;;8.20;99.90;;;7.64;95.59;96259.28;10578350;27;1924;-74
2021/10/13 08:41:03;;;;;;;;;;;8.50;99.90;;;7.13;95.71;96253.88;10550753;28;1886;-76
2021/10/13 08:46:06;;;;;;;;;;;8.30;99.90;;;6.60;99.05;96265.66;10570904;28;1884;-74
2021/10/13 08:51:09;;;;;;;;;;;7.90;99.90;;;6.06;100.00;96261.59;10572522;27;1755;-74
2021/10/13 08:56:12;;;;;;;;;;;7.50;99.90;;;6.20;100.00;96260.28;10567761;28;2011;-75
2021/10/13 09:01:15;;;;;;;;;;;7.30;99.90;;;6.07;100.00;96261.34;10570370;28;2014;-72
2021/10/13 09:06:18;;;;;;;;;;;7.20;99.90;;;6.50;100.00;96260.94;10566743;27;2283;-75
2021/10/13 09:11:21;;;;;;;;;;;7.30;99.90;;;7.30;100.00;96254.69;10569643;28;1893;-75
2021/10/13 09:16:24;;;;;;;;;;;7.60;99.90;;;8.37;93.02;96242.19;10570521;27;1859;-75
2021/10/13 09:21:26;;;;;;;;;;;8.40;99.90;;;8.92;81.71;96246.63;10549598;28;1987;-75
2021/10/13 09:26:29;;;;;;;;;;;9.30;99.90;;;8.62;86.08;96250.53;10562196;28;1933;-76
2021/10/13 09:31:32;;;;;;;;;;;9.50;99.90;;;7.96;95.02;96267.56;10571189;28;1968;-77
2021/10/13 09:36:36;;;;;;;;;;;9.20;99.90;;;6.86;100.00;96275.00;10576326;28;1567;-78
2021/10/13 09:41:38;;;;;;;;;;;8.30;99.90;;;6.74;100.00;96282.25;10583388;27;1955;-76
2021/10/13 09:46:41;;;;;;;;;;;7.90;99.90;;;7.19;100.00;96279.66;10584546;28;1839;-77
2021/10/13 09:51:44;;;;;;;;;;;7.90;99.90;;;7.50;99.77;96264.94;10559114;28;1883;-75
2021/10/13 09:56:47;;;;;;;;;;;8.10;99.90;;;7.97;99.80;96261.94;10590750;27;1784;-79
2021/10/13 10:01:50;;;;;;;;;;;8.40;99.90;;;8.56;96.48;96264.94;10592666;28;1973;-77
2021/10/13 10:06:54;;;;;;;;;;;9.00;99.90;;;8.94;92.07;96258.69;10586077;28;2058;-78
2021/10/13 10:11:57;;;;;;;;;;;9.40;99.90;;;9.02;87.12;96260.13;10578967;28;1891;-78
2021/10/13 10:17:19;;;;;;;;;;;9.70;99.90;;;8.88;89.48;96258.91;10575419;28;1949;-75
2021/10/13 10:22:22;;;;;;;;;;;9.60;99.90;;;8.96;84.99;96258.44;10574187;28;1985;-75
2021/10/13 10:27:28;;;;;;;;;;;9.60;99.90;;;8.88;79.85;96265.06;10570078;28;1894;-74
2021/10/13 10:32:31;;;;;;;;;;;9.80;99.90;;;8.87;78.68;96270.69;10562683;28;2048;-74
2021/10/13 10:37:34;;;;;;;;;;;9.60;99.90;;;8.90;82.92;96262.94;10565233;28;1887;-73
2021/10/13 10:42:37;;;;;;;;;;;9.70;99.90;;;8.91;84.57;96255.72;10563545;28;2013;-75
2021/10/13 10:47:40;;;;;;;;;;;9.80;99.90;;;8.67;80.72;96263.22;10567686;28;1839;-76
2021/10/13 10:52:43;;;;;;;;;;;9.70;99.90;;;8.83;84.48;96261.50;10543965;28;2069;-79
2021/10/13 10:57:46;;;;;;;;;;;9.70;99.90;;;8.79;82.84;96269.25;10569788;28;1890;-75
2021/10/13 11:02:49;;;;;;;;;;;9.80;99.90;;;8.49;81.74;96271.53;10556792;28;2307;-74
2021/10/13 11:07:52;;;;;;;;;;;9.60;99.90;;;8.29;85.36;96270.19;10547718;28;2062;-73
2021/10/13 11:12:55;;;;;;;;;;;9.30;99.90;;;8.38;81.56;96270.59;10558977;28;1914;-73
2021/10/13 11:17:58;;;;;;;;;;;9.30;99.90;;;8.31;79.37;96265.38;10561644;28;1902;-73
2021/10/13 11:23:01;;;;;;;;;;;9.30;99.90;;;8.82;78.66;96257.22;10543809;28;1983;-72
2021/10/13 11:28:04;;;;;;;;;;;9.40;99.90;;;9.07;75.30;96256.69;10565263;28;1878;-70
2021/10/13 11:33:06;;;;;;;;;;;9.80;99.90;;;8.84;75.90;96260.44;10557468;28;1742;-74
2021/10/13 11:38:10;;;;;;;;;;;9.90;99.90;;;8.84;75.43;96266.66;10580305;28;1893;-76
2021/10/13 11:43:13;;;;;;;;;;;9.80;99.90;;;8.91;77.71;96275.31;10587212;28;1894;-76
2021/10/13 11:48:16;;;;;;;;;;;9.70;99.90;;;9.21;74.00;96274.81;10576932;28;1870;-78
2021/10/13 11:53:19;;;;;;;;;;;10.00;99.90;;;9.19;71.50;96271.56;10591244;28;1582;-75
2021/10/13 11:58:22;;;;;;;;;;;10.10;99.90;;;8.38;71.16;96276.75;10587356;27;1914;-77
2021/10/13 12:03:27;;;;;;;;;;;9.80;99.90;;;7.48;71.91;96280.44;10571825;27;1899;-76
2021/10/13 12:08:30;;;;;;;;;;;8.90;99.90;;;7.82;72.41;96294.66;10555873;28;1870;-76
2021/10/13 12:13:33;;;;;;;;;;;8.70;99.90;;;8.05;75.15;96288.31;10569127;28;1953;-75
2021/10/13 12:18:58;;;;;;;;;;;8.90;99.90;;;8.42;73.41;96282.44;10571027;28;1897;-74
2021/10/13 12:24:01;;;;;;;;;;;9.30;99.90;;;8.72;73.35;96275.88;10582648;28;1977;-77
2021/10/13 12:29:04;;;;;;;;;;;9.40;99.90;;;8.83;71.61;96274.91;10593245;27;1937;-74
2021/10/13 12:34:07;;;;;;;;;;;9.70;99.90;;;8.31;72.54;96272.59;10592432;27;3340;-73
2021/10/13 12:39:10;;;;;;;;;;;9.70;99.90;;;8.55;76.24;96268.69;10590393;27;2790;-78
2021/10/13 12:44:14;;;;;;;;;;;9.50;99.90;;;8.86;71.25;96271.75;10576264;27;2219;-75
2021/10/13 12:49:18;;;;;;;;;;;9.70;99.90;;;8.96;72.11;96273.72;10563644;27;1854;-78
2021/10/13 12:54:24;;;;;;;;;;;9.80;99.90;;;9.14;73.23;96273.38;10568285;28;2390;-76
2021/10/13 12:59:27;;;;;;;;;;;10.00;99.90;;;8.93;71.59;96275.84;10576993;28;1861;-76
2021/10/13 13:04:30;;;;;;;;;;;10.00;99.90;;;8.85;68.63;96265.56;10577596;27;2111;-77
2021/10/13 13:09:33;;;;;;;;;;;9.90;99.90;;;8.66;69.53;96262.41;10581233;28;2378;-77
2021/10/13 13:14:36;;;;;;;;;;;9.80;99.90;;;8.62;70.84;96265.81;10586549;28;1966;-78
2021/10/13 13:19:39;;;;;;;;;;;9.70;99.90;;;9.01;69.51;96258.50;10577015;28;1937;-78
2021/10/13 13:24:42;;;;;;;;;;;9.80;99.90;;;9.55;70.09;96247.78;10575562;28;1894;-76
2021/10/13 13:29:45;;;;;;;;;;;10.20;99.90;;;9.83;66.91;96259.28;10575317;28;1882;-77
2021/10/13 13:34:48;;;;;;;;;;;10.60;99.90;;;10.17;65.05;96265.16;10580929;28;1885;-77
2021/10/13 13:39:51;;;;;;;;;;;10.80;99.90;;;9.86;61.99;96258.75;10580234;28;2028;-77
2021/10/13 13:44:54;;;;;;;;;;;10.90;99.90;;;9.20;63.92;96267.81;10576193;28;2290;-77
2021/10/13 13:49:59;;;;;;;;;;;10.50;99.90;;;8.83;64.51;96273.03;10580592;27;1866;-76
2021/10/13 13:55:03;;;;;;;;;;;10.20;99.90;;;8.63;66.04;96281.66;10575318;28;1875;-76
2021/10/13 14:00:06;;;;;;;;;;;9.90;99.90;;;8.50;65.27;96283.88;10584113;28;1810;-77
2021/10/13 14:05:08;;;;;;;;;;;9.60;99.90;;;8.46;67.60;96285.41;10574361;28;1957;-76
2021/10/13 14:10:11;;;;;;;;;;;9.50;99.90;;;8.43;70.38;96300.13;10558144;28;1916;-77
2021/10/13 14:15:14;;;;;;;;;;;9.50;99.90;;;8.25;73.43;96295.00;10563857;28;1946;-77
2021/10/13 14:20:17;;;;;;;;;;;9.40;99.90;;;8.27;72.77;96290.22;10554281;28;2038;-78
2021/10/13 14:25:20;;;;;;;;;;;9.30;99.90;;;8.25;73.36;96308.41;10563438;28;1917;-77
2021/10/13 14:30:23;;;;;;;;;;;9.30;99.90;;;8.30;73.08;96300.47;10575799;28;1978;-78
2021/10/13 14:35:26;;;;;;;;;;;9.40;99.90;;;8.56;68.71;96305.13;10571810;28;1914;-77
2021/10/13 14:40:34;;;;;;;;;;;9.50;99.90;;;8.61;67.29;96318.59;10578027;28;1945;-77
2021/10/13 14:45:37;;;;;;;;;;;9.60;99.90;;;8.54;65.17;96312.63;10576064;28;1984;-75
2021/10/13 14:50:39;;;;;;;;;;;9.60;99.90;;;8.78;65.19;96321.25;10574991;28;1855;-76
2021/10/13 14:55:43;;;;;;;;;;;9.70;99.90;;;8.70;64.72;96321.66;10563630;28;1893;-76
2021/10/13 15:00:45;;;;;;;;;;;9.70;99.90;;;8.58;65.01;96310.25;10569750;28;1796;-76
2021/10/13 15:05:48;;;;;;;;;;;9.70;99.90;;;8.31;65.89;96327.00;10555327;27;1950;-79
2021/10/13 15:10:51;;;;;;;;;;;9.50;99.90;;;8.03;68.25;96325.22;10608840;27;1905;-76
2021/10/13 15:15:55;;;;;;;;;;;9.30;99.90;;;7.84;69.15;96339.91;10573971;28;1853;-76
2021/10/13 15:20:58;;;;;;;;;;;9.10;99.90;;;7.65;70.16;96339.31;10576253;28;2044;-77
2021/10/13 15:26:01;;;;;;;;;;;8.90;99.90;;;7.43;74.17;96344.53;10574044;28;1971;-76
2021/10/13 15:31:04;;;;;;;;;;;8.70;99.90;;;7.28;75.71;96347.72;10577249;27;1940;-77
2021/10/13 15:36:07;;;;;;;;;;;8.60;99.90;;;7.31;76.12;96341.09;10576846;27;1893;-77
2021/10/13 15:41:10;;;;;;;;;;;8.50;99.90;;;7.17;78.79;96353.13;10595694;27;1921;-77
2021/10/13 15:46:13;;;;;;;;;;;8.40;99.90;;;7.13;79.67;96357.34;10584645;27;1976;-77
2021/10/13 15:51:16;;;;;;;;;;;8.40;99.90;;;7.05;80.71;96348.63;10585145;27;2126;-79
2021/10/13 15:56:19;;;;;;;;;;;8.30;99.90;;;6.82;82.25;96353.22;10581803;27;2052;-78
2021/10/13 16:01:22;;;;;;;;;;;8.20;99.90;;;6.61;85.63;96354.63;10581755;28;1955;-78
2021/10/13 16:06:25;;;;;;;;;;;8.00;99.90;;;6.52;86.35;96354.19;10557777;28;1978;-78
2021/10/13 16:11:28;;;;;;;;;;;7.90;99.90;;;6.44;87.96;96360.69;10570586;28;1877;-77
2021/10/13 16:16:30;;;;;;;;;;;7.80;99.90;;;6.35;88.58;96369.28;10560334;28;1925;-79
2021/10/13 16:21:33;;;;;;;;;;;7.70;99.90;;;6.18;91.31;96359.31;10568443;28;1914;-76
2021/10/13 16:26:40;;;;;;;;;;;7.60;99.90;;;6.06;92.56;96363.81;10577083;28;2059;-78
2021/10/13 16:31:45;;;;;;;;;;;7.50;99.90;;;5.97;93.98;96366.00;10559690;28;1926;-76
2021/10/13 16:36:49;;;;;;;;;;;7.40;99.90;;;5.87;95.93;96379.06;10582292;28;2009;-78
2021/10/13 16:41:52;;;;;;;;;;;7.30;99.90;;;5.78;97.93;96379.59;10557482;28;2032;-75
2021/10/13 16:46:55;;;;;;;;;;;7.20;99.90;;;5.64;98.49;96385.13;10567557;28;1969;-77
2021/10/13 16:51:58;;;;;;;;;;;7.10;99.90;;;5.63;99.67;96393.38;10566667;28;1882;-75
2021/10/13 16:57:00;;;;;;;;;;;7.00;99.90;;;5.51;100.00;96400.53;10570542;28;1878;-75
2021/10/13 17:02:03;;;;;;;;;;;7.00;99.90;;;5.38;100.00;96405.00;10568263;28;1899;-75
2021/10/13 17:07:07;;;;;;;;;;;6.90;99.90;;;5.40;100.00;96420.75;10554452;27;1861;-77
2021/10/13 17:12:09;;;;;;;;;;;6.80;99.90;;;5.51;100.00;96419.19;10547934;28;1837;-77
2021/10/13 17:17:12;;;;;;;;;;;6.80;99.90;;;5.64;100.00;96421.66;10586734;27;1882;-76
2021/10/13 17:22:16;;;;;;;;;;;6.80;99.90;;;5.79;100.00;96431.91;10578156;27;1985;-76
2021/10/13 17:27:19;;;;;;;;;;;6.90;99.90;;;5.87;100.00;96432.44;10582157;27;1871;-78
2021/10/13 17:32:21;;;;;;;;;;;7.00;99.90;;;5.93;100.00;96434.22;10581278;27;1826;-76
2021/10/13 17:37:25;;;;;;;;;;;7.10;99.90;;;5.93;100.00;96442.22;10576318;27;1990;-76
2021/10/13 17:42:30;;;;;;;;;;;7.10;99.90;;;6.00;100.00;96447.47;10572362;27;1913;-77
2021/10/13 17:47:32;;;;;;;;;;;7.10;99.90;;;6.07;100.00;96452.69;10576464;27;1991;-75
2021/10/13 17:52:35;;;;;;;;;;;7.20;99.90;;;6.06;100.00;96446.56;10571516;28;1804;-77
2021/10/13 17:57:38;;;;;;;;;;;7.20;99.90;;;6.17;99.37;96458.28;10556284;28;2075;-77
2021/10/13 18:02:41;;;;;;;;;;;7.30;99.90;;;6.13;99.03;96465.94;10567142;28;1987;-78
2021/10/13 18:07:46;;;;;;;;;;;7.30;99.90;;;6.16;99.27;96468.16;10573247;27;1883;-77
2021/10/13 18:12:49;;;;;;;;;;;7.40;99.90;;;6.23;98.23;96468.88;10564313;28;2103;-77
2021/10/13 18:17:51;;;;;;;;;;;7.40;99.90;;;6.21;98.73;96475.47;10565738;28;1938;-77
2021/10/13 18:22:55;;;;;;;;;;;7.40;99.90;;;6.17;98.21;96479.63;10564814;28;1997;-76
2021/10/13 18:27:57;;;;;;;;;;;7.40;99.90;;;6.11;99.05;96492.06;10568193;28;1887;-76
2021/10/13 18:33:00;;;;;;;;;;;7.30;99.90;;;6.10;99.47;96489.59;10553246;28;1983;-76
2021/10/13 18:38:03;;;;;;;;;;;7.30;99.90;;;6.03;100.00;96488.88;10569674;27;2007;-78
2021/10/13 18:43:06;;;;;;;;;;;7.30;99.90;;;5.94;100.00;96491.88;10580819;27;1967;-78
2021/10/13 18:48:10;;;;;;;;;;;7.20;99.90;;;5.88;100.00;96492.75;10577924;28;1202;-77
2021/10/13 18:53:13;;;;;;;;;;;7.10;99.90;;;5.86;100.00;96494.03;10580162;27;1918;-77
2021/10/13 18:58:16;;;;;;;;;;;7.10;99.90;;;5.95;100.00;96498.84;10579435;27;1851;-76
2021/10/13 19:03:19;;;;;;;;;;;7.10;99.90;;;5.88;100.00;96503.44;10576419;28;2012;-77
2021/10/13 19:08:22;;;;;;;;;;;7.10;99.90;;;5.93;100.00;96508.94;10579369;27;2051;-77
2021/10/13 19:13:25;;;;;;;;;;;7.10;99.90;;;5.91;100.00;96519.00;10579113;27;1882;-76
2021/10/13 19:18:30;;;;;;;;;;;7.00;99.90;;;5.91;100.00;96519.00;10575514;28;1953;-77
2021/10/13 19:23:40;;;;;;;;;;;7.10;99.90;;;5.93;100.00;96527.63;10577365;27;1905;-77
2021/10/13 19:28:44;;;;;;;;;;;7.10;99.90;;;6.02;100.00;96529.97;10561282;28;2008;-78
2021/10/13 19:33:48;;;;;;;;;;;7.20;99.90;;;6.02;100.00;96528.09;10556920;28;1884;-77
2021/10/13 19:38:51;;;;;;;;;;;7.10;99.90;;;6.00;100.00;96529.38;10573587;28;1937;-76
2021/10/13 19:43:54;;;;;;;;;;;7.10;99.90;;;5.97;100.00;96533.31;10578718;27;1968;-78
2021/10/13 19:48:57;;;;;;;;;;;7.10;99.90;;;5.92;100.00;96531.34;10575315;27;1890;-76
2021/10/13 19:54:00;;;;;;;;;;;7.10;99.90;;;5.86;100.00;96531.38;10575147;27;1884;-76
2021/10/13 19:59:03;;;;;;;;;;;7.00;99.90;;;5.73;100.00;96543.03;10580019;27;1922;-76
2021/10/13 20:04:06;;;;;;;;;;;7.00;99.90;;;5.67;100.00;96543.94;10572420;27;1905;-76
2021/10/13 20:09:09;;;;;;;;;;;6.90;99.90;;;5.71;100.00;96550.44;10576154;27;2044;-77
2021/10/13 20:14:12;;;;;;;;;;;6.80;99.90;;;5.82;100.00;96557.69;10590422;27;1889;-77
2021/10/13 20:19:15;;;;;;;;;;;6.90;99.90;;;5.97;100.00;96554.66;10587747;27;1882;-76
2021/10/13 20:24:19;;;;;;;;;;;7.00;99.90;;;6.03;100.00;96558.28;10580347;27;1902;-75
2021/10/13 20:29:22;;;;;;;;;;;7.00;99.90;;;6.04;100.00;96565.25;10574564;28;1948;-74
2021/10/13 20:34:25;;;;;;;;;;;7.10;99.90;;;6.08;100.00;96572.59;10575156;28;1916;-75
2021/10/13 20:39:28;;;;;;;;;;;7.10;99.90;;;6.02;100.00;96567.34;10551789;28;2132;-77
2021/10/13 20:44:31;;;;;;;;;;;7.20;99.90;;;6.08;100.00;96569.09;10567636;27;1968;-77
2021/10/13 20:49:33;;;;;;;;;;;7.20;99.90;;;6.03;100.00;96576.97;10568988;28;1897;-78
2021/10/13 20:54:36;;;;;;;;;;;7.20;99.90;;;5.91;100.00;96567.03;10553912;28;1954;-77
2021/10/13 20:59:39;;;;;;;;;;;7.10;99.90;;;5.81;100.00;96574.75;10579464;28;1890;-76
2021/10/13 21:04:42;;;;;;;;;;;7.00;99.90;;;5.88;100.00;96582.66;10582408;27;1930;-77
2021/10/13 21:09:45;;;;;;;;;;;7.00;99.90;;;5.84;100.00;96576.94;10583644;27;1815;-79
2021/10/13 21:14:48;;;;;;;;;;;7.00;99.90;;;5.80;100.00;96597.13;10576700;28;1793;-78
2021/10/13 21:19:51;;;;;;;;;;;6.90;99.90;;;5.76;100.00;96587.13;10576721;28;2152;-79
2021/10/13 21:24:54;;;;;;;;;;;6.90;99.90;;;5.65;100.00;96583.34;10592951;28;3204;-80
2021/10/13 21:29:57;;;;;;;;;;;6.90;99.90;;;5.54;100.00;96586.75;10571131;28;2346;-78
2021/10/13 21:35:00;;;;;;;;;;;6.80;99.90;;;5.31;100.00;96582.06;10574423;28;2425;-78
2021/10/13 21:40:03;;;;;;;;;;;6.70;99.90;;;5.15;100.00;96572.78;10588251;28;2260;-80
2021/10/13 21:45:06;;;;;;;;;;;6.50;99.90;;;5.02;100.00;96573.72;10596767;28;1983;-79
2021/10/13 21:50:09;;;;;;;;;;;6.50;99.90;;;4.95;100.00;96580.94;10597193;27;1835;-79
2021/10/13 21:55:12;;;;;;;;;;;6.30;99.90;;;4.74;100.00;96576.81;10587494;28;1775;-78
2021/10/13 22:00:15;;;;;;;;;;;6.20;99.90;;;4.69;100.00;96581.16;10587512;28;2328;-79
2021/10/13 22:05:18;;;;;;;;;;;6.10;99.90;;;4.49;100.00;96576.00;10588450;28;1976;-80
2021/10/13 22:10:21;;;;;;;;;;;5.90;99.90;;;4.38;100.00;96576.66;10566348;28;1839;-78
2021/10/13 22:15:24;;;;;;;;;;;5.80;99.90;;;4.30;100.00;96575.09;10586456;28;1961;-78
2021/10/13 22:20:27;;;;;;;;;;;5.70;99.90;;;4.25;100.00;96559.75;10593697;28;1918;-78
2021/10/13 22:25:30;;;;;;;;;;;5.60;99.90;;;4.18;100.00;96560.81;10611500;27;2212;-80
2021/10/13 22:30:33;;;;;;;;;;;5.60;99.90;;;4.18;100.00;96564.31;10605468;27;1843;-78
2021/10/13 22:35:36;;;;;;;;;;;5.50;99.90;;;4.09;100.00;96560.28;10595514;28;1952;-79
2021/10/13 22:40:39;;;;;;;;;;;5.50;99.90;;;4.09;100.00;96562.13;10605013;28;2109;-83
2021/10/13 22:45:42;;;;;;;;;;;5.40;99.90;;;4.12;100.00;96565.16;10594168;28;1914;-80
2021/10/13 22:50:46;;;;;;;;;;;5.40;99.90;;;4.07;100.00;96562.31;10569655;28;1897;-79
2021/10/13 22:55:49;;;;;;;;;;;5.40;99.90;;;4.02;100.00;96570.13;10594403;28;1602;-78
2021/10/13 23:00:52;;;;;;;;;;;5.30;99.90;;;3.96;100.00;96566.47;10581525;28;2395;-80
2021/10/13 23:05:55;;;;;;;;;;;5.30;99.90;;;3.95;100.00;96566.69;10588482;28;1913;-79
2021/10/13 23:10:58;;;;;;;;;;;5.30;99.90;;;3.88;100.00;96564.06;10594906;28;1835;-79
2021/10/13 23:16:01;;;;;;;;;;;5.20;99.90;;;3.87;100.00;96577.56;10604841;28;1878;-79
2021/10/13 23:21:05;;;;;;;;;;;5.20;99.90;;;3.78;100.00;96575.16;10591227;28;1894;-81
2021/10/13 23:26:08;;;;;;;;;;;5.10;99.90;;;3.71;100.00;96576.19;10597077;27;1951;-81
2021/10/13 23:31:10;;;;;;;;;;;5.10;99.90;;;3.66;100.00;96565.38;10606463;27;1951;-79
2021/10/13 23:36:14;;;;;;;;;;;5.00;99.90;;;3.60;100.00;96564.38;10613033;27;1374;-78